UAE40J OMDB-HAAB
Flight info
| Callsign | UAE40J |
|---|---|
| Flight time | 3h 42m |
| Altitude | 34000 |
| Route | ANVIX R401 GIDIS G783 ELUDA/N0478F400 G783 UKRAG/N0476F390 L710 KUKDI/N0478F400 B400 NODMA L702 ULALI T701 TORBA UB535 LAKBE LAKBE2A |
| Aircraft | B77L/H-SDE1E2E3FGHIJ2J3J4J5M1RWXY/LB1D1 |
Departure
| Time | 2026-04-20 12:47 |
|---|---|
| Airport | Dubai International Airport (OMDB) |
Arrival
| Time | 2026-04-20 16:29 |
|---|---|
| Airport | Addis Ababa Bole International Airport (HAAB) |
| Time | Latitude | Longitude | Altitude | Speed | Heading |
|---|---|---|---|---|---|
| 2026-04-20 12:10 | 25.26466 | 55.34350 | 26 ft | 0 kts | 211° |
| 2026-04-20 12:31 | 25.26481 | 55.34360 | 31 ft | 4 kts | 211° |
| 2026-04-20 12:31 | 25.26504 | 55.34375 | 30 ft | 4 kts | 211° |
| 2026-04-20 12:31 | 25.26527 | 55.34390 | 32 ft | 4 kts | 196° |
| 2026-04-20 12:32 | 25.26551 | 55.34390 | 32 ft | 4 kts | 148° |
| 2026-04-20 12:32 | 25.26568 | 55.34371 | 30 ft | 2 kts | 122° |
| 2026-04-20 12:32 | 25.26580 | 55.34350 | 32 ft | 4 kts | 122° |
| 2026-04-20 12:32 | 25.26584 | 55.34342 | 32 ft | 0 kts | 122° |
| 2026-04-20 12:35 | 25.26583 | 55.34345 | 32 ft | 2 kts | 122° |
| 2026-04-20 12:36 | 25.26569 | 55.34369 | 30 ft | 6 kts | 122° |
| 2026-04-20 12:36 | 25.26540 | 55.34421 | 30 ft | 10 kts | 122° |
| 2026-04-20 12:36 | 25.26503 | 55.34486 | 29 ft | 11 kts | 122° |
| 2026-04-20 12:36 | 25.26498 | 55.34538 | 26 ft | 11 kts | 72° |
| 2026-04-20 12:37 | 25.26519 | 55.34612 | 25 ft | 11 kts | 105° |
| 2026-04-20 12:37 | 25.26480 | 55.34685 | 27 ft | 11 kts | 122° |
| 2026-04-20 12:37 | 25.26436 | 55.34762 | 27 ft | 12 kts | 122° |
| 2026-04-20 12:37 | 25.26388 | 55.34847 | 27 ft | 14 kts | 122° |
| 2026-04-20 12:38 | 25.26332 | 55.34947 | 26 ft | 17 kts | 122° |
| 2026-04-20 12:38 | 25.26266 | 55.35063 | 28 ft | 19 kts | 122° |
| 2026-04-20 12:38 | 25.26191 | 55.35196 | 27 ft | 22 kts | 122° |
| 2026-04-20 12:38 | 25.26107 | 55.35345 | 27 ft | 24 kts | 122° |
| 2026-04-20 12:39 | 25.25920 | 55.35679 | 30 ft | 26 kts | 122° |
| 2026-04-20 12:39 | 25.25824 | 55.35849 | 27 ft | 26 kts | 122° |
| 2026-04-20 12:39 | 25.25729 | 55.36018 | 27 ft | 26 kts | 122° |
| 2026-04-20 12:40 | 25.25633 | 55.36189 | 27 ft | 26 kts | 122° |
| 2026-04-20 12:40 | 25.25538 | 55.36358 | 27 ft | 26 kts | 122° |
| 2026-04-20 12:40 | 25.25442 | 55.36528 | 27 ft | 26 kts | 121° |
| 2026-04-20 12:40 | 25.25347 | 55.36698 | 30 ft | 26 kts | 122° |
| 2026-04-20 12:41 | 25.25251 | 55.36868 | 26 ft | 26 kts | 122° |
| 2026-04-20 12:41 | 25.25156 | 55.37038 | 27 ft | 26 kts | 122° |
| 2026-04-20 12:41 | 25.25060 | 55.37208 | 28 ft | 26 kts | 122° |
| 2026-04-20 12:41 | 25.24966 | 55.37376 | 28 ft | 24 kts | 122° |
| 2026-04-20 12:42 | 25.24880 | 55.37529 | 28 ft | 23 kts | 122° |
| 2026-04-20 12:42 | 25.24802 | 55.37668 | 27 ft | 16 kts | 122° |
| 2026-04-20 12:42 | 25.24747 | 55.37765 | 27 ft | 15 kts | 121° |
| 2026-04-20 12:42 | 25.24690 | 55.37866 | 27 ft | 16 kts | 122° |
| 2026-04-20 12:43 | 25.24631 | 55.37969 | 28 ft | 16 kts | 121° |
| 2026-04-20 12:43 | 25.24573 | 55.38073 | 27 ft | 16 kts | 122° |
| 2026-04-20 12:43 | 25.24518 | 55.38171 | 27 ft | 12 kts | 122° |
| 2026-04-20 12:43 | 25.24518 | 55.38257 | 27 ft | 12 kts | 51° |
| 2026-04-20 12:44 | 25.24584 | 55.38308 | 26 ft | 9 kts | 32° |
| 2026-04-20 12:44 | 25.24642 | 55.38327 | 25 ft | 9 kts | 338° |
| 2026-04-20 12:44 | 25.24672 | 55.38270 | 27 ft | 5 kts | 297° |
| 2026-04-20 12:44 | 25.24676 | 55.38262 | 27 ft | 0 kts | 301° |
| 2026-04-20 12:46 | 25.24680 | 55.38256 | 27 ft | 8 kts | 301° |
| 2026-04-20 12:46 | 25.24795 | 55.38047 | 30 ft | 68 kts | 301° |
| 2026-04-20 12:46 | 25.25187 | 55.37338 | 32 ft | 145 kts | 301° |
| 2026-04-20 12:46 | 25.25776 | 55.36270 | 427 ft | 170 kts | 300° |
| 2026-04-20 12:47 | 25.26405 | 55.35114 | 1122 ft | 179 kts | 301° |
| 2026-04-20 12:47 | 25.27056 | 55.33921 | 1875 ft | 188 kts | 301° |
| 2026-04-20 12:47 | 25.27750 | 55.32677 | 2610 ft | 192 kts | 302° |
| 2026-04-20 12:47 | 25.28457 | 55.31403 | 3326 ft | 199 kts | 302° |
| 2026-04-20 12:48 | 25.29155 | 55.30070 | 4038 ft | 202 kts | 292° |
| 2026-04-20 12:48 | 25.29261 | 55.28516 | 4704 ft | 211 kts | 253° |
| 2026-04-20 12:48 | 25.28602 | 55.27080 | 5444 ft | 211 kts | 243° |
| 2026-04-20 12:48 | 25.27922 | 55.25621 | 6137 ft | 216 kts | 247° |
| 2026-04-20 12:49 | 25.27279 | 55.24111 | 6847 ft | 217 kts | 247° |
| 2026-04-20 12:49 | 25.26634 | 55.22612 | 7615 ft | 216 kts | 247° |
| 2026-04-20 12:49 | 25.25991 | 55.21104 | 8286 ft | 221 kts | 247° |
| 2026-04-20 12:49 | 25.25298 | 55.19482 | 8596 ft | 248 kts | 247° |
| 2026-04-20 12:50 | 25.24449 | 55.17787 | 9146 ft | 257 kts | 231° |
| 2026-04-20 12:50 | 25.22953 | 55.16685 | 9875 ft | 268 kts | 196° |
| 2026-04-20 12:50 | 25.21063 | 55.16571 | 10459 ft | 279 kts | 176° |
| 2026-04-20 12:50 | 25.19159 | 55.17087 | 11065 ft | 290 kts | 150° |
| 2026-04-20 12:51 | 25.17682 | 55.18636 | 11712 ft | 304 kts | 120° |
| 2026-04-20 12:51 | 25.16684 | 55.20746 | 12346 ft | 316 kts | 116° |
| 2026-04-20 12:51 | 25.15589 | 55.22969 | 12761 ft | 346 kts | 119° |
| 2026-04-20 12:51 | 25.14324 | 55.25370 | 13008 ft | 378 kts | 120° |
| 2026-04-20 12:52 | 25.12951 | 55.27942 | 13536 ft | 397 kts | 120° |
| 2026-04-20 12:52 | 25.11530 | 55.30609 | 14289 ft | 408 kts | 120° |
| 2026-04-20 12:52 | 25.10092 | 55.33326 | 15196 ft | 412 kts | 120° |
| 2026-04-20 12:52 | 25.08648 | 55.36064 | 16203 ft | 414 kts | 120° |
| 2026-04-20 12:53 | 25.07195 | 55.38829 | 17157 ft | 419 kts | 120° |
| 2026-04-20 12:53 | 25.05726 | 55.41627 | 18067 ft | 424 kts | 120° |
| 2026-04-20 12:53 | 25.04238 | 55.44463 | 18821 ft | 430 kts | 120° |
| 2026-04-20 12:53 | 25.02726 | 55.47341 | 19539 ft | 437 kts | 121° |
| 2026-04-20 12:54 | 25.01192 | 55.50262 | 20269 ft | 443 kts | 121° |
| 2026-04-20 12:54 | 24.99635 | 55.53222 | 20992 ft | 450 kts | 121° |
| 2026-04-20 12:54 | 24.98054 | 55.56226 | 21708 ft | 456 kts | 121° |
| 2026-04-20 12:54 | 24.96454 | 55.59264 | 22388 ft | 462 kts | 121° |
| 2026-04-20 12:55 | 24.94830 | 55.62347 | 23075 ft | 468 kts | 121° |
| 2026-04-20 12:55 | 24.93183 | 55.65469 | 23679 ft | 474 kts | 121° |
| 2026-04-20 12:55 | 24.91522 | 55.68617 | 24304 ft | 477 kts | 122° |
| 2026-04-20 12:55 | 24.89852 | 55.71783 | 25002 ft | 479 kts | 122° |
| 2026-04-20 12:56 | 24.88175 | 55.74958 | 25712 ft | 481 kts | 122° |
| 2026-04-20 12:56 | 24.86488 | 55.78149 | 26377 ft | 484 kts | 122° |
| 2026-04-20 12:56 | 24.84789 | 55.81362 | 27023 ft | 487 kts | 122° |
| 2026-04-20 12:56 | 24.83078 | 55.84594 | 27669 ft | 490 kts | 122° |
| 2026-04-20 12:57 | 24.81337 | 55.87824 | 28270 ft | 489 kts | 125° |
| 2026-04-20 12:57 | 24.79103 | 55.90638 | 28652 ft | 492 kts | 143° |
| 2026-04-20 12:57 | 24.76182 | 55.92556 | 29228 ft | 488 kts | 160° |
| 2026-04-20 12:57 | 24.72942 | 55.93598 | 29929 ft | 484 kts | 173° |
| 2026-04-20 12:58 | 24.69601 | 55.93787 | 30422 ft | 482 kts | 185° |
| 2026-04-20 12:58 | 24.66238 | 55.93568 | 30746 ft | 487 kts | 186° |
| 2026-04-20 12:58 | 24.62921 | 55.93139 | 30943 ft | 489 kts | 195° |
| 2026-04-20 12:58 | 24.59694 | 55.91963 | 31291 ft | 489 kts | 206° |
| 2026-04-20 12:59 | 24.56712 | 55.90205 | 31808 ft | 484 kts | 216° |
| 2026-04-20 12:59 | 24.54110 | 55.87906 | 32313 ft | 479 kts | 225° |
| 2026-04-20 12:59 | 24.51637 | 55.85436 | 32778 ft | 481 kts | 226° |
| 2026-04-20 12:59 | 24.49165 | 55.82962 | 33241 ft | 482 kts | 226° |
| 2026-04-20 13:00 | 24.46671 | 55.80504 | 33743 ft | 482 kts | 225° |
| 2026-04-20 13:00 | 24.44157 | 55.78068 | 34182 ft | 482 kts | 226° |
| 2026-04-20 13:00 | 24.41632 | 55.75647 | 34590 ft | 482 kts | 226° |
| 2026-04-20 13:00 | 24.39109 | 55.73234 | 35090 ft | 480 kts | 227° |
| 2026-04-20 13:01 | 24.36598 | 55.70831 | 35622 ft | 476 kts | 227° |
| 2026-04-20 13:01 | 24.34121 | 55.68444 | 36193 ft | 473 kts | 228° |
| 2026-04-20 13:01 | 24.31660 | 55.66066 | 36691 ft | 470 kts | 229° |
| 2026-04-20 13:01 | 24.29193 | 55.63726 | 37195 ft | 471 kts | 226° |
| 2026-04-20 13:02 | 24.26462 | 55.61684 | 37585 ft | 481 kts | 218° |
| 2026-04-20 13:02 | 24.23452 | 55.60011 | 37951 ft | 489 kts | 212° |
| 2026-04-20 13:02 | 24.20229 | 55.58728 | 38333 ft | 499 kts | 205° |
| 2026-04-20 13:02 | 24.16868 | 55.57748 | 38669 ft | 500 kts | 203° |
| 2026-04-20 13:03 | 24.13494 | 55.56820 | 38971 ft | 500 kts | 203° |
| 2026-04-20 13:03 | 24.10125 | 55.55883 | 39272 ft | 499 kts | 203° |
| 2026-04-20 13:03 | 24.06775 | 55.54918 | 39564 ft | 498 kts | 204° |
| 2026-04-20 13:03 | 24.03424 | 55.53927 | 39723 ft | 500 kts | 204° |
| 2026-04-20 13:04 | 24.00059 | 55.52923 | 39765 ft | 503 kts | 204° |
| 2026-04-20 13:04 | 23.93314 | 55.50915 | 39781 ft | 500 kts | 204° |
| 2026-04-20 13:05 | 23.86638 | 55.48931 | 39786 ft | 495 kts | 204° |
| 2026-04-20 13:05 | 23.80004 | 55.46956 | 39787 ft | 493 kts | 204° |
| 2026-04-20 13:06 | 23.73387 | 55.44982 | 39798 ft | 493 kts | 204° |
| 2026-04-20 13:06 | 23.66766 | 55.43009 | 39792 ft | 494 kts | 204° |
| 2026-04-20 13:07 | 23.60126 | 55.41033 | 39796 ft | 495 kts | 204° |
| 2026-04-20 13:07 | 23.53346 | 55.39404 | 39788 ft | 510 kts | 192° |
| 2026-04-20 13:07 | 23.49763 | 55.39348 | 39792 ft | 521 kts | 184° |
| 2026-04-20 13:08 | 23.46137 | 55.39848 | 39796 ft | 531 kts | 173° |
| 2026-04-20 13:08 | 23.38982 | 55.42060 | 39795 ft | 536 kts | 168° |
| 2026-04-20 13:09 | 23.31829 | 55.44423 | 39789 ft | 538 kts | 169° |
| 2026-04-20 13:09 | 23.24656 | 55.46728 | 39790 ft | 538 kts | 169° |
| 2026-04-20 13:10 | 23.17468 | 55.48993 | 39764 ft | 538 kts | 169° |
| 2026-04-20 13:10 | 23.10289 | 55.51253 | 39791 ft | 537 kts | 169° |
| 2026-04-20 13:11 | 23.03117 | 55.53514 | 39788 ft | 536 kts | 169° |
| 2026-04-20 13:11 | 22.95946 | 55.55720 | 39782 ft | 535 kts | 170° |
| 2026-04-20 13:12 | 22.88825 | 55.57881 | 39781 ft | 534 kts | 170° |
| 2026-04-20 13:12 | 22.81624 | 55.60072 | 39787 ft | 534 kts | 170° |
| 2026-04-20 13:13 | 22.74519 | 55.62239 | 39784 ft | 534 kts | 170° |
| 2026-04-20 13:13 | 22.67369 | 55.64418 | 39777 ft | 534 kts | 169° |
| 2026-04-20 13:14 | 22.60219 | 55.66594 | 39786 ft | 534 kts | 169° |
| 2026-04-20 13:14 | 22.53064 | 55.68787 | 39788 ft | 535 kts | 169° |
| 2026-04-20 13:15 | 22.45899 | 55.70985 | 39782 ft | 535 kts | 169° |
| 2026-04-20 13:15 | 22.38730 | 55.73179 | 39778 ft | 536 kts | 169° |
| 2026-04-20 13:16 | 22.31556 | 55.75372 | 39786 ft | 536 kts | 169° |
| 2026-04-20 13:16 | 22.24334 | 55.77295 | 39781 ft | 531 kts | 177° |
| 2026-04-20 13:17 | 22.17039 | 55.78094 | 39774 ft | 526 kts | 182° |
| 2026-04-20 13:17 | 22.09740 | 55.78747 | 39788 ft | 527 kts | 181° |
| 2026-04-20 13:18 | 22.02423 | 55.79455 | 39788 ft | 528 kts | 181° |
| 2026-04-20 13:18 | 21.95092 | 55.80196 | 39786 ft | 529 kts | 181° |
| 2026-04-20 13:19 | 21.87804 | 55.80933 | 39781 ft | 530 kts | 181° |
| 2026-04-20 13:19 | 21.80463 | 55.81671 | 39788 ft | 530 kts | 181° |
| 2026-04-20 13:20 | 21.73110 | 55.82408 | 39787 ft | 531 kts | 181° |
| 2026-04-20 13:20 | 21.65758 | 55.83139 | 39774 ft | 531 kts | 181° |
| 2026-04-20 13:21 | 21.58404 | 55.83857 | 39784 ft | 531 kts | 181° |
| 2026-04-20 13:21 | 21.51051 | 55.84573 | 39785 ft | 531 kts | 181° |
| 2026-04-20 13:22 | 21.43692 | 55.85291 | 39783 ft | 531 kts | 181° |
| 2026-04-20 13:22 | 21.36341 | 55.86009 | 39784 ft | 531 kts | 181° |
| 2026-04-20 13:23 | 21.28982 | 55.86726 | 39780 ft | 531 kts | 181° |
| 2026-04-20 13:23 | 21.21627 | 55.87439 | 39780 ft | 531 kts | 181° |
| 2026-04-20 13:24 | 21.14276 | 55.88144 | 39778 ft | 530 kts | 181° |
| 2026-04-20 13:24 | 21.06933 | 55.88849 | 39771 ft | 530 kts | 181° |
| 2026-04-20 13:25 | 21.00825 | 55.89436 | 39783 ft | 530 kts | 181° |
| 2026-04-20 13:25 | 20.92290 | 55.90254 | 39781 ft | 530 kts | 181° |
| 2026-04-20 13:26 | 20.84942 | 55.90959 | 39765 ft | 530 kts | 180° |
| 2026-04-20 13:26 | 20.78784 | 55.91562 | 39769 ft | 530 kts | 180° |
| 2026-04-20 13:27 | 20.71436 | 55.92287 | 39771 ft | 530 kts | 180° |
| 2026-04-20 13:27 | 20.64083 | 55.93011 | 39774 ft | 531 kts | 180° |
| 2026-04-20 13:28 | 20.56729 | 55.93732 | 39755 ft | 531 kts | 180° |
| 2026-04-20 13:28 | 20.49426 | 55.94447 | 39774 ft | 531 kts | 180° |
| 2026-04-20 13:29 | 20.42067 | 55.95167 | 39772 ft | 531 kts | 180° |
| 2026-04-20 13:29 | 20.34710 | 55.95886 | 39777 ft | 531 kts | 180° |
| 2026-04-20 13:30 | 20.27351 | 55.96600 | 39770 ft | 531 kts | 180° |
| 2026-04-20 13:30 | 20.19988 | 55.97298 | 39780 ft | 531 kts | 180° |
| 2026-04-20 13:31 | 20.12628 | 55.97997 | 39778 ft | 531 kts | 180° |
| 2026-04-20 13:31 | 20.05266 | 55.98544 | 39774 ft | 528 kts | 184° |
| 2026-04-20 13:32 | 19.97923 | 55.98706 | 39771 ft | 527 kts | 185° |
| 2026-04-20 13:32 | 19.90584 | 55.98839 | 39779 ft | 528 kts | 185° |
| 2026-04-20 13:33 | 19.83235 | 55.99005 | 39777 ft | 528 kts | 184° |
| 2026-04-20 13:33 | 19.75884 | 55.99187 | 39763 ft | 528 kts | 184° |
| 2026-04-20 13:34 | 19.68535 | 55.99367 | 39786 ft | 528 kts | 184° |
| 2026-04-20 13:34 | 19.61183 | 55.99545 | 39791 ft | 528 kts | 184° |
| 2026-04-20 13:35 | 19.53860 | 55.99481 | 39770 ft | 520 kts | 194° |
| 2026-04-20 13:35 | 19.47010 | 55.97548 | 39782 ft | 503 kts | 210° |
| 2026-04-20 13:36 | 19.40959 | 55.94088 | 39788 ft | 492 kts | 219° |
| 2026-04-20 13:36 | 19.35089 | 55.90415 | 39784 ft | 494 kts | 218° |
| 2026-04-20 13:37 | 19.29119 | 55.86752 | 39787 ft | 497 kts | 218° |
| 2026-04-20 13:37 | 19.23118 | 55.83117 | 39786 ft | 498 kts | 218° |
| 2026-04-20 13:38 | 19.17096 | 55.79476 | 39784 ft | 499 kts | 218° |
| 2026-04-20 13:38 | 19.11065 | 55.75827 | 39776 ft | 499 kts | 217° |
| 2026-04-20 13:39 | 19.05033 | 55.72180 | 39782 ft | 499 kts | 217° |
| 2026-04-20 13:39 | 18.98995 | 55.68544 | 39786 ft | 500 kts | 217° |
| 2026-04-20 13:40 | 18.92952 | 55.64914 | 39790 ft | 500 kts | 217° |
| 2026-04-20 13:40 | 18.86910 | 55.61284 | 39789 ft | 499 kts | 217° |
| 2026-04-20 13:41 | 18.80876 | 55.57661 | 39790 ft | 499 kts | 217° |
| 2026-04-20 13:41 | 18.74840 | 55.54039 | 39791 ft | 499 kts | 217° |
| 2026-04-20 13:42 | 18.68809 | 55.50423 | 39791 ft | 499 kts | 217° |
| 2026-04-20 13:42 | 18.59765 | 55.45006 | 39797 ft | 498 kts | 217° |
| 2026-04-20 13:43 | 18.53774 | 55.41421 | 39804 ft | 499 kts | 217° |
| 2026-04-20 13:43 | 18.47738 | 55.37812 | 39803 ft | 499 kts | 217° |
| 2026-04-20 13:44 | 18.41700 | 55.34204 | 39807 ft | 499 kts | 217° |
| 2026-04-20 13:44 | 18.35659 | 55.30598 | 39806 ft | 499 kts | 217° |
| 2026-04-20 13:45 | 18.29618 | 55.26994 | 39803 ft | 499 kts | 217° |
| 2026-04-20 13:45 | 18.23577 | 55.23391 | 39801 ft | 499 kts | 217° |
| 2026-04-20 13:46 | 18.17544 | 55.19793 | 39794 ft | 499 kts | 217° |
| 2026-04-20 13:46 | 18.11367 | 55.16424 | 39807 ft | 504 kts | 210° |
| 2026-04-20 13:47 | 18.04903 | 55.13548 | 39815 ft | 505 kts | 209° |
| 2026-04-20 13:47 | 17.98416 | 55.10699 | 39816 ft | 505 kts | 210° |
| 2026-04-20 13:48 | 17.91943 | 55.07818 | 39822 ft | 505 kts | 210° |
| 2026-04-20 13:48 | 17.85476 | 55.04918 | 39807 ft | 505 kts | 210° |
| 2026-04-20 13:49 | 17.79018 | 55.02021 | 39825 ft | 505 kts | 210° |
| 2026-04-20 13:49 | 17.72600 | 54.99148 | 39834 ft | 505 kts | 210° |
| 2026-04-20 13:50 | 17.66144 | 54.96260 | 39834 ft | 505 kts | 209° |
| 2026-04-20 13:50 | 17.59686 | 54.93375 | 39850 ft | 504 kts | 209° |
| 2026-04-20 13:51 | 17.53231 | 54.90492 | 39855 ft | 504 kts | 209° |
| 2026-04-20 13:51 | 17.46767 | 54.87608 | 39855 ft | 505 kts | 209° |
| 2026-04-20 13:52 | 17.40305 | 54.84727 | 39880 ft | 505 kts | 209° |
| 2026-04-20 13:52 | 17.33837 | 54.81845 | 39875 ft | 505 kts | 209° |
| 2026-04-20 13:53 | 17.27396 | 54.78910 | 39883 ft | 503 kts | 213° |
| 2026-04-20 13:53 | 17.21445 | 54.75204 | 39874 ft | 496 kts | 219° |
| 2026-04-20 13:54 | 17.15673 | 54.71256 | 39871 ft | 496 kts | 219° |
| 2026-04-20 13:54 | 17.09877 | 54.67340 | 39885 ft | 496 kts | 219° |
| 2026-04-20 13:55 | 17.04056 | 54.63449 | 39863 ft | 496 kts | 219° |
| 2026-04-20 13:55 | 16.98245 | 54.59572 | 39885 ft | 496 kts | 219° |
| 2026-04-20 13:56 | 16.92431 | 54.55691 | 39882 ft | 496 kts | 219° |
| 2026-04-20 13:56 | 16.86607 | 54.51806 | 39858 ft | 497 kts | 219° |
| 2026-04-20 13:57 | 16.80777 | 54.47917 | 39852 ft | 497 kts | 219° |
| 2026-04-20 13:57 | 16.74943 | 54.44027 | 39851 ft | 498 kts | 219° |
| 2026-04-20 13:58 | 16.69105 | 54.40136 | 39850 ft | 498 kts | 219° |
| 2026-04-20 13:58 | 16.63260 | 54.36243 | 39851 ft | 498 kts | 219° |
| 2026-04-20 13:59 | 16.57416 | 54.32354 | 39841 ft | 498 kts | 218° |
| 2026-04-20 13:59 | 16.51572 | 54.28468 | 39853 ft | 498 kts | 218° |
| 2026-04-20 14:00 | 16.45728 | 54.24585 | 39843 ft | 498 kts | 218° |
| 2026-04-20 14:00 | 16.39887 | 54.20706 | 39856 ft | 498 kts | 218° |
| 2026-04-20 14:01 | 16.34084 | 54.16855 | 39849 ft | 498 kts | 218° |
| 2026-04-20 14:01 | 16.28210 | 54.12960 | 39857 ft | 497 kts | 218° |
| 2026-04-20 14:02 | 16.22415 | 54.09120 | 39854 ft | 497 kts | 218° |
| 2026-04-20 14:02 | 16.16582 | 54.05258 | 39858 ft | 497 kts | 218° |
| 2026-04-20 14:03 | 16.10752 | 54.01400 | 39863 ft | 497 kts | 218° |
| 2026-04-20 14:03 | 16.04922 | 53.97544 | 39862 ft | 496 kts | 218° |
| 2026-04-20 14:04 | 15.99096 | 53.93694 | 39862 ft | 496 kts | 218° |
| 2026-04-20 14:04 | 15.93272 | 53.89847 | 39855 ft | 496 kts | 218° |
| 2026-04-20 14:05 | 15.87451 | 53.86005 | 39859 ft | 496 kts | 218° |
| 2026-04-20 14:05 | 15.81642 | 53.82137 | 39867 ft | 496 kts | 218° |
| 2026-04-20 14:06 | 15.75847 | 53.78259 | 39869 ft | 496 kts | 218° |
| 2026-04-20 14:06 | 15.70045 | 53.74383 | 39871 ft | 496 kts | 218° |
| 2026-04-20 14:07 | 15.64235 | 53.70508 | 39870 ft | 496 kts | 218° |
| 2026-04-20 14:07 | 15.58429 | 53.66639 | 39864 ft | 496 kts | 218° |
| 2026-04-20 14:08 | 15.52616 | 53.62767 | 39871 ft | 496 kts | 218° |
| 2026-04-20 14:08 | 15.46863 | 53.58833 | 39866 ft | 492 kts | 224° |
| 2026-04-20 14:09 | 15.42361 | 53.53755 | 39883 ft | 476 kts | 242° |
| 2026-04-20 14:09 | 15.39371 | 53.47745 | 39884 ft | 467 kts | 251° |
| 2026-04-20 14:10 | 15.36715 | 53.41588 | 39875 ft | 469 kts | 251° |
| 2026-04-20 14:10 | 15.34022 | 53.35429 | 39875 ft | 470 kts | 251° |
| 2026-04-20 14:11 | 15.31287 | 53.29266 | 39875 ft | 471 kts | 251° |
| 2026-04-20 14:11 | 15.28535 | 53.23104 | 39872 ft | 472 kts | 251° |
| 2026-04-20 14:12 | 15.25776 | 53.16934 | 39872 ft | 472 kts | 251° |
| 2026-04-20 14:12 | 15.23018 | 53.10766 | 39871 ft | 472 kts | 251° |
| 2026-04-20 14:13 | 15.20259 | 53.04600 | 39871 ft | 472 kts | 251° |
| 2026-04-20 14:13 | 15.17500 | 52.98438 | 39867 ft | 471 kts | 250° |
| 2026-04-20 14:14 | 15.14742 | 52.92284 | 39869 ft | 471 kts | 250° |
| 2026-04-20 14:14 | 15.11985 | 52.86137 | 39868 ft | 471 kts | 250° |
| 2026-04-20 14:15 | 15.09246 | 52.80035 | 39873 ft | 470 kts | 250° |
| 2026-04-20 14:15 | 15.06490 | 52.73901 | 39872 ft | 470 kts | 250° |
| 2026-04-20 14:16 | 15.03732 | 52.67767 | 39868 ft | 470 kts | 250° |
| 2026-04-20 14:16 | 15.00972 | 52.61635 | 39870 ft | 470 kts | 250° |
| 2026-04-20 14:17 | 14.98657 | 52.56497 | 39872 ft | 470 kts | 250° |
| 2026-04-20 14:17 | 14.95894 | 52.50365 | 39864 ft | 470 kts | 250° |
| 2026-04-20 14:18 | 14.93147 | 52.44277 | 39873 ft | 470 kts | 250° |
| 2026-04-20 14:18 | 14.90379 | 52.38146 | 39871 ft | 471 kts | 250° |
| 2026-04-20 14:19 | 14.87609 | 52.32012 | 39871 ft | 471 kts | 250° |
| 2026-04-20 14:19 | 14.84819 | 52.25888 | 39871 ft | 471 kts | 250° |
| 2026-04-20 14:20 | 14.81991 | 52.19774 | 39869 ft | 471 kts | 250° |
| 2026-04-20 14:20 | 14.79164 | 52.13661 | 39868 ft | 472 kts | 250° |
| 2026-04-20 14:21 | 14.76339 | 52.07547 | 39869 ft | 472 kts | 250° |
| 2026-04-20 14:21 | 14.73514 | 52.01432 | 39869 ft | 472 kts | 250° |
| 2026-04-20 14:22 | 14.70688 | 51.95318 | 39855 ft | 472 kts | 249° |
| 2026-04-20 14:22 | 14.67858 | 51.89203 | 39868 ft | 472 kts | 249° |
| 2026-04-20 14:23 | 14.65035 | 51.83084 | 39869 ft | 472 kts | 250° |
| 2026-04-20 14:23 | 14.62238 | 51.76949 | 39870 ft | 472 kts | 250° |
| 2026-04-20 14:24 | 14.59443 | 51.70812 | 39869 ft | 473 kts | 250° |
| 2026-04-20 14:24 | 14.56639 | 51.64670 | 39868 ft | 473 kts | 250° |
| 2026-04-20 14:25 | 14.53833 | 51.58534 | 39866 ft | 473 kts | 250° |
| 2026-04-20 14:25 | 14.51024 | 51.52398 | 39867 ft | 473 kts | 250° |
| 2026-04-20 14:26 | 14.48215 | 51.46266 | 39865 ft | 473 kts | 250° |
| 2026-04-20 14:26 | 14.45404 | 51.40136 | 39866 ft | 472 kts | 250° |
| 2026-04-20 14:27 | 14.42593 | 51.34009 | 39870 ft | 472 kts | 250° |
| 2026-04-20 14:27 | 14.39780 | 51.27884 | 39869 ft | 472 kts | 250° |
| 2026-04-20 14:28 | 14.36989 | 51.21812 | 39868 ft | 472 kts | 250° |
| 2026-04-20 14:28 | 14.34177 | 51.15698 | 39869 ft | 472 kts | 250° |
| 2026-04-20 14:29 | 14.31364 | 51.09587 | 39868 ft | 472 kts | 250° |
| 2026-04-20 14:29 | 14.28551 | 51.03479 | 39866 ft | 471 kts | 250° |
| 2026-04-20 14:30 | 14.25736 | 50.97375 | 39868 ft | 471 kts | 250° |
| 2026-04-20 14:30 | 14.22918 | 50.91267 | 39869 ft | 471 kts | 250° |
| 2026-04-20 14:31 | 14.20102 | 50.85168 | 39867 ft | 472 kts | 249° |
| 2026-04-20 14:31 | 14.17280 | 50.79060 | 39867 ft | 472 kts | 249° |
| 2026-04-20 14:32 | 14.14457 | 50.72955 | 39866 ft | 472 kts | 249° |
| 2026-04-20 14:32 | 14.11629 | 50.66844 | 39863 ft | 473 kts | 249° |
| 2026-04-20 14:33 | 14.08555 | 50.60835 | 39865 ft | 475 kts | 246° |
| 2026-04-20 14:33 | 14.05322 | 50.54900 | 39866 ft | 475 kts | 245° |
| 2026-04-20 14:34 | 14.02091 | 50.48960 | 39864 ft | 475 kts | 246° |
| 2026-04-20 14:34 | 13.98878 | 50.43011 | 39863 ft | 475 kts | 246° |
| 2026-04-20 14:35 | 13.95672 | 50.37062 | 39865 ft | 475 kts | 246° |
| 2026-04-20 14:35 | 13.92468 | 50.31120 | 39862 ft | 475 kts | 246° |
| 2026-04-20 14:36 | 13.89282 | 50.25219 | 39863 ft | 475 kts | 246° |
| 2026-04-20 14:36 | 13.86074 | 50.19283 | 39862 ft | 474 kts | 246° |
| 2026-04-20 14:37 | 13.82868 | 50.13352 | 39863 ft | 474 kts | 246° |
| 2026-04-20 14:37 | 13.79661 | 50.07425 | 39864 ft | 474 kts | 246° |
| 2026-04-20 14:38 | 13.76468 | 50.01500 | 39856 ft | 474 kts | 246° |
| 2026-04-20 14:38 | 13.73288 | 49.95563 | 39854 ft | 474 kts | 246° |
| 2026-04-20 14:39 | 13.70108 | 49.89625 | 39861 ft | 474 kts | 246° |
| 2026-04-20 14:39 | 13.66920 | 49.83685 | 39861 ft | 475 kts | 246° |
| 2026-04-20 14:40 | 13.63728 | 49.77742 | 39860 ft | 475 kts | 246° |
| 2026-04-20 14:40 | 13.60531 | 49.71797 | 39866 ft | 475 kts | 246° |
| 2026-04-20 14:41 | 13.57334 | 49.65854 | 39848 ft | 475 kts | 246° |
| 2026-04-20 14:41 | 13.54134 | 49.59909 | 39849 ft | 475 kts | 246° |
| 2026-04-20 14:42 | 13.50955 | 49.54008 | 39858 ft | 475 kts | 246° |
| 2026-04-20 14:42 | 13.47753 | 49.48068 | 39863 ft | 475 kts | 246° |
| 2026-04-20 14:43 | 13.44551 | 49.42133 | 39857 ft | 475 kts | 246° |
| 2026-04-20 14:43 | 13.41349 | 49.36200 | 39855 ft | 475 kts | 246° |
| 2026-04-20 14:44 | 13.38146 | 49.30272 | 39858 ft | 475 kts | 246° |
| 2026-04-20 14:44 | 13.34944 | 49.24346 | 39840 ft | 475 kts | 246° |
| 2026-04-20 14:45 | 13.31739 | 49.18421 | 39853 ft | 475 kts | 246° |
| 2026-04-20 14:45 | 13.28555 | 49.12479 | 39857 ft | 475 kts | 246° |
| 2026-04-20 14:46 | 13.25381 | 49.06527 | 39854 ft | 475 kts | 246° |
| 2026-04-20 14:46 | 13.22205 | 49.00575 | 39855 ft | 476 kts | 246° |
| 2026-04-20 14:47 | 13.19020 | 48.94618 | 39846 ft | 476 kts | 246° |
| 2026-04-20 14:48 | 13.14237 | 48.85687 | 39854 ft | 476 kts | 246° |
| 2026-04-20 14:48 | 13.11047 | 48.79732 | 39853 ft | 476 kts | 246° |
| 2026-04-20 14:49 | 13.07854 | 48.73778 | 39854 ft | 476 kts | 246° |
| 2026-04-20 14:49 | 13.04660 | 48.67826 | 39847 ft | 476 kts | 246° |
| 2026-04-20 14:50 | 13.01467 | 48.61880 | 39841 ft | 476 kts | 246° |
| 2026-04-20 14:50 | 12.98294 | 48.55974 | 39846 ft | 476 kts | 246° |
| 2026-04-20 14:51 | 12.95100 | 48.50034 | 39849 ft | 476 kts | 246° |
| 2026-04-20 14:51 | 12.91905 | 48.44095 | 39838 ft | 476 kts | 246° |
| 2026-04-20 14:52 | 12.88706 | 48.38152 | 39846 ft | 476 kts | 245° |
| 2026-04-20 14:52 | 12.85502 | 48.32205 | 39848 ft | 477 kts | 245° |
| 2026-04-20 14:53 | 12.82295 | 48.26257 | 39847 ft | 477 kts | 245° |
| 2026-04-20 14:53 | 12.79083 | 48.20303 | 39838 ft | 478 kts | 245° |
| 2026-04-20 14:54 | 12.75868 | 48.14347 | 39850 ft | 478 kts | 245° |
| 2026-04-20 14:54 | 12.72651 | 48.08393 | 39846 ft | 478 kts | 245° |
| 2026-04-20 14:55 | 12.69429 | 48.02433 | 39842 ft | 478 kts | 245° |
| 2026-04-20 14:55 | 12.66204 | 47.96471 | 39847 ft | 479 kts | 245° |
| 2026-04-20 14:56 | 12.62997 | 47.90546 | 39843 ft | 479 kts | 245° |
| 2026-04-20 14:56 | 12.59769 | 47.84586 | 39847 ft | 479 kts | 245° |
| 2026-04-20 14:57 | 12.56542 | 47.78631 | 39844 ft | 478 kts | 245° |
| 2026-04-20 14:57 | 12.53314 | 47.72679 | 39843 ft | 478 kts | 245° |
| 2026-04-20 14:58 | 12.50085 | 47.66729 | 39838 ft | 478 kts | 245° |
| 2026-04-20 14:58 | 12.46857 | 47.60782 | 39838 ft | 478 kts | 245° |
| 2026-04-20 14:59 | 12.43627 | 47.54837 | 39842 ft | 478 kts | 245° |
| 2026-04-20 14:59 | 12.40978 | 47.48668 | 39838 ft | 470 kts | 258° |
| 2026-04-20 15:00 | 12.39857 | 47.42154 | 39837 ft | 462 kts | 270° |
| 2026-04-20 15:00 | 12.39497 | 47.35587 | 39842 ft | 462 kts | 271° |
| 2026-04-20 15:01 | 12.39135 | 47.29013 | 39845 ft | 463 kts | 270° |
| 2026-04-20 15:01 | 12.38727 | 47.22438 | 39843 ft | 464 kts | 270° |
| 2026-04-20 15:02 | 12.38304 | 47.15853 | 39836 ft | 464 kts | 270° |
| 2026-04-20 15:02 | 12.37880 | 47.09265 | 39840 ft | 464 kts | 270° |
| 2026-04-20 15:03 | 12.37457 | 47.02679 | 39842 ft | 464 kts | 270° |
| 2026-04-20 15:03 | 12.37038 | 46.96088 | 39848 ft | 464 kts | 270° |
| 2026-04-20 15:04 | 12.36623 | 46.89554 | 39836 ft | 463 kts | 270° |
| 2026-04-20 15:04 | 12.36203 | 46.82985 | 39840 ft | 462 kts | 270° |
| 2026-04-20 15:05 | 12.35783 | 46.76433 | 39834 ft | 461 kts | 270° |
| 2026-04-20 15:05 | 12.35361 | 46.69891 | 39835 ft | 461 kts | 270° |
| 2026-04-20 15:06 | 12.34939 | 46.63356 | 39836 ft | 460 kts | 270° |
| 2026-04-20 15:06 | 12.34515 | 46.56824 | 39834 ft | 460 kts | 270° |
| 2026-04-20 15:07 | 12.34089 | 46.50292 | 39835 ft | 460 kts | 270° |
| 2026-04-20 15:07 | 12.33663 | 46.43762 | 39832 ft | 460 kts | 270° |
| 2026-04-20 15:08 | 12.33234 | 46.37232 | 39833 ft | 460 kts | 270° |
| 2026-04-20 15:08 | 12.32877 | 46.31805 | 39835 ft | 460 kts | 269° |
| 2026-04-20 15:09 | 12.32445 | 46.25270 | 39836 ft | 460 kts | 269° |
| 2026-04-20 15:09 | 12.32012 | 46.18741 | 39832 ft | 460 kts | 269° |
| 2026-04-20 15:10 | 12.31578 | 46.12210 | 39833 ft | 460 kts | 269° |
| 2026-04-20 15:10 | 12.31142 | 46.05685 | 39829 ft | 460 kts | 269° |
| 2026-04-20 15:11 | 12.30705 | 45.99164 | 39829 ft | 460 kts | 269° |
| 2026-04-20 15:11 | 12.30266 | 45.92648 | 39827 ft | 459 kts | 269° |
| 2026-04-20 15:12 | 12.29826 | 45.86129 | 39828 ft | 459 kts | 269° |
| 2026-04-20 15:12 | 12.29385 | 45.79613 | 39823 ft | 459 kts | 269° |
| 2026-04-20 15:13 | 12.28942 | 45.73102 | 39822 ft | 459 kts | 269° |
| 2026-04-20 15:13 | 12.28501 | 45.66634 | 39816 ft | 459 kts | 269° |
| 2026-04-20 15:14 | 12.28056 | 45.60123 | 39823 ft | 459 kts | 269° |
| 2026-04-20 15:14 | 12.27608 | 45.53608 | 39824 ft | 459 kts | 269° |
| 2026-04-20 15:15 | 12.27160 | 45.47096 | 39816 ft | 459 kts | 269° |
| 2026-04-20 15:15 | 12.26710 | 45.40586 | 39821 ft | 459 kts | 269° |
| 2026-04-20 15:16 | 12.26275 | 45.34076 | 39818 ft | 459 kts | 269° |
| 2026-04-20 15:16 | 12.25866 | 45.27570 | 39816 ft | 459 kts | 269° |
| 2026-04-20 15:17 | 12.25457 | 45.21065 | 39816 ft | 459 kts | 269° |
| 2026-04-20 15:17 | 12.25043 | 45.14558 | 39813 ft | 458 kts | 269° |
| 2026-04-20 15:18 | 12.24626 | 45.08057 | 39818 ft | 458 kts | 269° |
| 2026-04-20 15:18 | 12.24206 | 45.01556 | 39824 ft | 458 kts | 269° |
| 2026-04-20 15:19 | 12.23786 | 44.95069 | 39810 ft | 457 kts | 269° |
| 2026-04-20 15:19 | 12.23365 | 44.88581 | 39813 ft | 457 kts | 269° |
| 2026-04-20 15:20 | 12.22943 | 44.82101 | 39817 ft | 457 kts | 269° |
| 2026-04-20 15:20 | 12.22519 | 44.75623 | 39812 ft | 457 kts | 269° |
| 2026-04-20 15:21 | 12.22094 | 44.69141 | 39814 ft | 457 kts | 269° |
| 2026-04-20 15:21 | 12.21667 | 44.62655 | 39812 ft | 457 kts | 269° |
| 2026-04-20 15:22 | 12.21241 | 44.56216 | 39815 ft | 457 kts | 269° |
| 2026-04-20 15:22 | 12.20810 | 44.49725 | 39814 ft | 457 kts | 269° |
| 2026-04-20 15:23 | 12.20378 | 44.43240 | 39811 ft | 457 kts | 269° |
| 2026-04-20 15:23 | 12.19945 | 44.36757 | 39809 ft | 457 kts | 269° |
| 2026-04-20 15:24 | 12.19511 | 44.30280 | 39808 ft | 457 kts | 269° |
| 2026-04-20 15:24 | 12.19075 | 44.23806 | 39805 ft | 456 kts | 269° |
| 2026-04-20 15:25 | 12.18639 | 44.17334 | 39806 ft | 456 kts | 269° |
| 2026-04-20 15:25 | 12.18201 | 44.10874 | 39804 ft | 456 kts | 269° |
| 2026-04-20 15:26 | 12.17203 | 44.04478 | 39808 ft | 461 kts | 255° |
| 2026-04-20 15:26 | 12.14490 | 43.98512 | 39804 ft | 469 kts | 240° |
| 2026-04-20 15:27 | 12.10746 | 43.93028 | 39806 ft | 471 kts | 238° |
| 2026-04-20 15:27 | 12.06948 | 43.87558 | 39805 ft | 473 kts | 238° |
| 2026-04-20 15:28 | 12.03186 | 43.82041 | 39801 ft | 474 kts | 239° |
| 2026-04-20 15:28 | 11.99441 | 43.76502 | 39804 ft | 474 kts | 239° |
| 2026-04-20 15:29 | 11.95688 | 43.70951 | 39798 ft | 475 kts | 238° |
| 2026-04-20 15:29 | 11.91928 | 43.65399 | 39800 ft | 476 kts | 238° |
| 2026-04-20 15:30 | 11.88160 | 43.59839 | 39800 ft | 476 kts | 238° |
| 2026-04-20 15:30 | 11.84443 | 43.54251 | 39800 ft | 476 kts | 239° |
| 2026-04-20 15:31 | 11.80795 | 43.48680 | 39804 ft | 475 kts | 239° |
| 2026-04-20 15:31 | 11.77117 | 43.43076 | 39799 ft | 475 kts | 239° |
| 2026-04-20 15:32 | 11.73435 | 43.37485 | 39800 ft | 474 kts | 239° |
| 2026-04-20 15:32 | 11.69752 | 43.31900 | 39808 ft | 474 kts | 239° |
| 2026-04-20 15:33 | 11.66069 | 43.26317 | 39811 ft | 474 kts | 239° |
| 2026-04-20 15:33 | 11.62382 | 43.20731 | 39811 ft | 474 kts | 239° |
| 2026-04-20 15:34 | 11.58697 | 43.15149 | 39817 ft | 475 kts | 239° |
| 2026-04-20 15:34 | 11.55017 | 43.09559 | 39819 ft | 474 kts | 240° |
| 2026-04-20 15:35 | 11.51749 | 43.03741 | 39824 ft | 473 kts | 244° |
| 2026-04-20 15:35 | 11.48593 | 42.97858 | 39825 ft | 473 kts | 244° |
| 2026-04-20 15:36 | 11.45422 | 42.91976 | 39832 ft | 474 kts | 244° |
| 2026-04-20 15:36 | 11.42231 | 42.86101 | 39832 ft | 474 kts | 243° |
| 2026-04-20 15:37 | 11.39031 | 42.80225 | 39835 ft | 474 kts | 243° |
| 2026-04-20 15:37 | 11.35846 | 42.74382 | 39831 ft | 475 kts | 243° |
| 2026-04-20 15:38 | 11.32642 | 42.68505 | 39825 ft | 474 kts | 244° |
| 2026-04-20 15:38 | 11.29438 | 42.62629 | 39832 ft | 474 kts | 244° |
| 2026-04-20 15:39 | 11.26232 | 42.56755 | 39827 ft | 474 kts | 244° |
| 2026-04-20 15:39 | 11.23031 | 42.50893 | 39813 ft | 473 kts | 244° |
| 2026-04-20 15:40 | 11.19829 | 42.45032 | 39819 ft | 473 kts | 244° |
| 2026-04-20 15:40 | 11.16630 | 42.39179 | 39810 ft | 473 kts | 244° |
| 2026-04-20 15:41 | 11.13430 | 42.33327 | 39798 ft | 473 kts | 244° |
| 2026-04-20 15:41 | 11.10229 | 42.27478 | 39792 ft | 473 kts | 244° |
| 2026-04-20 15:42 | 11.07024 | 42.21621 | 39792 ft | 474 kts | 244° |
| 2026-04-20 15:42 | 11.03804 | 42.15771 | 39781 ft | 474 kts | 242° |
| 2026-04-20 15:43 | 11.00013 | 42.10246 | 39775 ft | 477 kts | 235° |
| 2026-04-20 15:43 | 10.95905 | 42.04933 | 39777 ft | 478 kts | 234° |
| 2026-04-20 15:44 | 10.91827 | 41.99599 | 39771 ft | 478 kts | 235° |
| 2026-04-20 15:44 | 10.87807 | 41.94212 | 39765 ft | 478 kts | 236° |
| 2026-04-20 15:45 | 10.83817 | 41.88814 | 39771 ft | 477 kts | 236° |
| 2026-04-20 15:45 | 10.79830 | 41.83415 | 39773 ft | 477 kts | 236° |
| 2026-04-20 15:46 | 10.75838 | 41.78020 | 39770 ft | 477 kts | 236° |
| 2026-04-20 15:46 | 10.71843 | 41.72628 | 39764 ft | 477 kts | 236° |
| 2026-04-20 15:47 | 10.67852 | 41.67244 | 39763 ft | 477 kts | 235° |
| 2026-04-20 15:47 | 10.63890 | 41.61902 | 39765 ft | 476 kts | 235° |
| 2026-04-20 15:48 | 10.59903 | 41.56528 | 39769 ft | 476 kts | 235° |
| 2026-04-20 15:48 | 10.55917 | 41.51160 | 39768 ft | 476 kts | 235° |
| 2026-04-20 15:49 | 10.51932 | 41.45794 | 39771 ft | 475 kts | 235° |
| 2026-04-20 15:49 | 10.47948 | 41.40431 | 39765 ft | 475 kts | 235° |
| 2026-04-20 15:50 | 10.43966 | 41.35075 | 39769 ft | 475 kts | 235° |
| 2026-04-20 15:50 | 10.39984 | 41.29720 | 39769 ft | 475 kts | 235° |
| 2026-04-20 15:51 | 10.36000 | 41.24367 | 39766 ft | 475 kts | 235° |
| 2026-04-20 15:51 | 10.32019 | 41.19020 | 39769 ft | 474 kts | 235° |
| 2026-04-20 15:52 | 10.28039 | 41.13676 | 39769 ft | 474 kts | 235° |
| 2026-04-20 15:52 | 10.24060 | 41.08336 | 39774 ft | 474 kts | 235° |
| 2026-04-20 15:53 | 10.18093 | 41.00333 | 39773 ft | 474 kts | 235° |
| 2026-04-20 15:53 | 10.14114 | 40.94999 | 39772 ft | 474 kts | 235° |
| 2026-04-20 15:54 | 10.10134 | 40.89667 | 39773 ft | 474 kts | 235° |
| 2026-04-20 15:54 | 10.06154 | 40.84337 | 39786 ft | 474 kts | 235° |
| 2026-04-20 15:55 | 10.02178 | 40.79015 | 39788 ft | 473 kts | 235° |
| 2026-04-20 15:55 | 9.98200 | 40.73693 | 39787 ft | 473 kts | 235° |
| 2026-04-20 15:56 | 9.94222 | 40.68372 | 39809 ft | 473 kts | 235° |
| 2026-04-20 15:56 | 9.90243 | 40.63054 | 39814 ft | 473 kts | 235° |
| 2026-04-20 15:57 | 9.86260 | 40.57731 | 39828 ft | 474 kts | 235° |
| 2026-04-20 15:57 | 9.82273 | 40.52405 | 39834 ft | 474 kts | 235° |
| 2026-04-20 15:58 | 9.78959 | 40.47981 | 39835 ft | 474 kts | 235° |
| 2026-04-20 15:58 | 9.74321 | 40.41790 | 39850 ft | 474 kts | 235° |
| 2026-04-20 15:59 | 9.70329 | 40.36465 | 39858 ft | 474 kts | 235° |
| 2026-04-20 15:59 | 9.67079 | 40.31942 | 39863 ft | 473 kts | 238° |
| 2026-04-20 16:00 | 9.63487 | 40.26359 | 39878 ft | 473 kts | 239° |
| 2026-04-20 16:00 | 9.59937 | 40.20747 | 39906 ft | 473 kts | 239° |
| 2026-04-20 16:01 | 9.56356 | 40.15165 | 39897 ft | 473 kts | 238° |
| 2026-04-20 16:01 | 9.52748 | 40.09597 | 39923 ft | 473 kts | 238° |
| 2026-04-20 16:02 | 9.49136 | 40.04034 | 39919 ft | 473 kts | 238° |
| 2026-04-20 16:02 | 9.47315 | 40.01230 | 39342 ft | 483 kts | 238° |
| 2026-04-20 16:02 | 9.45493 | 39.98423 | 38685 ft | 483 kts | 238° |
| 2026-04-20 16:03 | 9.43651 | 39.95587 | 37833 ft | 482 kts | 238° |
| 2026-04-20 16:03 | 9.41810 | 39.92754 | 37085 ft | 481 kts | 238° |
| 2026-04-20 16:03 | 9.39975 | 39.89929 | 36303 ft | 480 kts | 238° |
| 2026-04-20 16:03 | 9.38151 | 39.87122 | 35740 ft | 475 kts | 238° |
| 2026-04-20 16:04 | 9.36343 | 39.84342 | 35188 ft | 471 kts | 237° |
| 2026-04-20 16:04 | 9.34546 | 39.81578 | 34604 ft | 468 kts | 237° |
| 2026-04-20 16:04 | 9.32761 | 39.78832 | 34026 ft | 465 kts | 237° |
| 2026-04-20 16:04 | 9.30987 | 39.76105 | 33371 ft | 462 kts | 237° |
| 2026-04-20 16:05 | 9.29227 | 39.73399 | 32849 ft | 458 kts | 237° |
| 2026-04-20 16:05 | 9.27481 | 39.70714 | 32279 ft | 454 kts | 237° |
| 2026-04-20 16:05 | 9.25750 | 39.68053 | 31733 ft | 451 kts | 236° |
| 2026-04-20 16:05 | 9.24030 | 39.65410 | 31244 ft | 448 kts | 236° |
| 2026-04-20 16:06 | 9.22323 | 39.62789 | 30688 ft | 445 kts | 236° |
| 2026-04-20 16:06 | 9.20623 | 39.60178 | 30104 ft | 443 kts | 236° |
| 2026-04-20 16:06 | 9.18933 | 39.57582 | 29525 ft | 441 kts | 236° |
| 2026-04-20 16:06 | 9.17254 | 39.55006 | 28946 ft | 438 kts | 235° |
| 2026-04-20 16:07 | 9.15583 | 39.52441 | 28393 ft | 434 kts | 235° |
| 2026-04-20 16:07 | 9.13925 | 39.49898 | 27864 ft | 431 kts | 236° |
| 2026-04-20 16:07 | 9.12280 | 39.47374 | 27353 ft | 429 kts | 235° |
| 2026-04-20 16:07 | 9.10644 | 39.44863 | 26826 ft | 426 kts | 236° |
| 2026-04-20 16:08 | 9.09016 | 39.42368 | 26309 ft | 424 kts | 236° |
| 2026-04-20 16:08 | 9.07396 | 39.39884 | 25816 ft | 422 kts | 235° |
| 2026-04-20 16:08 | 9.05781 | 39.37407 | 25331 ft | 421 kts | 235° |
| 2026-04-20 16:08 | 9.04172 | 39.34941 | 24825 ft | 420 kts | 235° |
| 2026-04-20 16:09 | 9.02566 | 39.32480 | 24318 ft | 419 kts | 235° |
| 2026-04-20 16:09 | 9.00959 | 39.30017 | 23821 ft | 419 kts | 234° |
| 2026-04-20 16:09 | 8.99355 | 39.27560 | 23254 ft | 419 kts | 235° |
| 2026-04-20 16:09 | 8.97789 | 39.25095 | 22704 ft | 413 kts | 240° |
| 2026-04-20 16:10 | 8.96809 | 39.22381 | 22185 ft | 412 kts | 261° |
| 2026-04-20 16:10 | 8.96550 | 39.19531 | 21747 ft | 405 kts | 265° |
| 2026-04-20 16:10 | 8.96323 | 39.16696 | 21264 ft | 404 kts | 265° |
| 2026-04-20 16:10 | 8.96070 | 39.13876 | 20800 ft | 401 kts | 264° |
| 2026-04-20 16:11 | 8.95804 | 39.11073 | 20341 ft | 400 kts | 264° |
| 2026-04-20 16:11 | 8.95530 | 39.08277 | 19855 ft | 399 kts | 264° |
| 2026-04-20 16:11 | 8.95254 | 39.05486 | 19365 ft | 399 kts | 264° |
| 2026-04-20 16:11 | 8.94977 | 39.02702 | 18882 ft | 398 kts | 264° |
| 2026-04-20 16:12 | 8.94701 | 38.99925 | 18332 ft | 391 kts | 264° |
| 2026-04-20 16:12 | 8.94435 | 38.97245 | 17791 ft | 375 kts | 265° |
| 2026-04-20 16:12 | 8.94121 | 38.94681 | 17306 ft | 361 kts | 259° |
| 2026-04-20 16:12 | 8.93452 | 38.92281 | 16868 ft | 348 kts | 251° |
| 2026-04-20 16:13 | 8.92532 | 38.90067 | 16438 ft | 340 kts | 242° |
| 2026-04-20 16:13 | 8.91339 | 38.87958 | 16192 ft | 354 kts | 239° |
| 2026-04-20 16:13 | 8.90035 | 38.85763 | 16166 ft | 369 kts | 238° |
| 2026-04-20 16:13 | 8.88726 | 38.83570 | 16152 ft | 361 kts | 238° |
| 2026-04-20 16:14 | 8.87429 | 38.81381 | 15957 ft | 364 kts | 239° |
| 2026-04-20 16:14 | 8.86146 | 38.79201 | 15501 ft | 357 kts | 239° |
| 2026-04-20 16:14 | 8.84900 | 38.77072 | 15326 ft | 356 kts | 239° |
| 2026-04-20 16:14 | 8.83668 | 38.74959 | 15068 ft | 343 kts | 239° |
| 2026-04-20 16:15 | 8.82479 | 38.72920 | 14748 ft | 328 kts | 239° |
| 2026-04-20 16:15 | 8.81354 | 38.70989 | 14452 ft | 311 kts | 239° |
| 2026-04-20 16:15 | 8.80277 | 38.69142 | 14049 ft | 301 kts | 239° |
| 2026-04-20 16:15 | 8.79224 | 38.67337 | 13625 ft | 297 kts | 239° |
| 2026-04-20 16:16 | 8.78166 | 38.65564 | 13258 ft | 291 kts | 233° |
| 2026-04-20 16:16 | 8.76703 | 38.64222 | 12891 ft | 283 kts | 204° |
| 2026-04-20 16:16 | 8.74859 | 38.63743 | 12656 ft | 269 kts | 175° |
| 2026-04-20 16:16 | 8.73067 | 38.64075 | 12567 ft | 261 kts | 153° |
| 2026-04-20 16:17 | 8.71538 | 38.65039 | 12492 ft | 261 kts | 133° |
| 2026-04-20 16:17 | 8.70486 | 38.66504 | 12444 ft | 258 kts | 111° |
| 2026-04-20 16:17 | 8.70091 | 38.68266 | 12418 ft | 258 kts | 91° |
| 2026-04-20 16:17 | 8.70272 | 38.70052 | 12403 ft | 254 kts | 71° |
| 2026-04-20 16:18 | 8.71082 | 38.71614 | 12405 ft | 250 kts | 59° |
| 2026-04-20 16:18 | 8.72001 | 38.73118 | 12409 ft | 254 kts | 59° |
| 2026-04-20 16:18 | 8.72922 | 38.74664 | 12409 ft | 258 kts | 60° |
| 2026-04-20 16:18 | 8.73840 | 38.76214 | 12410 ft | 256 kts | 60° |
| 2026-04-20 16:19 | 8.74753 | 38.77756 | 12392 ft | 253 kts | 59° |
| 2026-04-20 16:19 | 8.75945 | 38.79039 | 12401 ft | 255 kts | 34° |
| 2026-04-20 16:19 | 8.77600 | 38.79732 | 12412 ft | 263 kts | 15° |
| 2026-04-20 16:19 | 8.79449 | 38.79796 | 12402 ft | 272 kts | 354° |
| 2026-04-20 16:20 | 8.81229 | 38.79127 | 12388 ft | 278 kts | 329° |
| 2026-04-20 16:20 | 8.82593 | 38.77738 | 12386 ft | 282 kts | 302° |
| 2026-04-20 16:20 | 8.83217 | 38.75869 | 12392 ft | 284 kts | 275° |
| 2026-04-20 16:20 | 8.83005 | 38.73891 | 12399 ft | 285 kts | 251° |
| 2026-04-20 16:21 | 8.82121 | 38.72108 | 12396 ft | 285 kts | 237° |
| 2026-04-20 16:21 | 8.81074 | 38.70386 | 12405 ft | 290 kts | 237° |
| 2026-04-20 16:21 | 8.80017 | 38.68629 | 12402 ft | 295 kts | 237° |
| 2026-04-20 16:21 | 8.78972 | 38.66875 | 12392 ft | 286 kts | 238° |
| 2026-04-20 16:22 | 8.78035 | 38.65158 | 12261 ft | 274 kts | 251° |
| 2026-04-20 16:22 | 8.77942 | 38.63309 | 12075 ft | 261 kts | 289° |
| 2026-04-20 16:22 | 8.78747 | 38.61615 | 11929 ft | 274 kts | 304° |
| 2026-04-20 16:22 | 8.80050 | 38.60293 | 11661 ft | 262 kts | 338° |
| 2026-04-20 16:23 | 8.81743 | 38.60019 | 11609 ft | 241 kts | 15° |
| 2026-04-20 16:23 | 8.83244 | 38.60547 | 11365 ft | 224 kts | 21° |
| 2026-04-20 16:23 | 8.84764 | 38.60742 | 11129 ft | 218 kts | 9° |
| 2026-04-20 16:23 | 8.86260 | 38.60916 | 10928 ft | 215 kts | 12° |
| 2026-04-20 16:24 | 8.87634 | 38.61359 | 10674 ft | 203 kts | 39° |
| 2026-04-20 16:24 | 8.88732 | 38.62238 | 10540 ft | 205 kts | 40° |
| 2026-04-20 16:24 | 8.89904 | 38.63125 | 10349 ft | 208 kts | 39° |
| 2026-04-20 16:24 | 8.91041 | 38.63970 | 10126 ft | 202 kts | 39° |
| 2026-04-20 16:25 | 8.92150 | 38.64793 | 9942 ft | 195 kts | 41° |
| 2026-04-20 16:25 | 8.92999 | 38.65813 | 9735 ft | 188 kts | 64° |
| 2026-04-20 16:25 | 8.93621 | 38.66977 | 9573 ft | 187 kts | 63° |
| 2026-04-20 16:25 | 8.94249 | 38.68082 | 9406 ft | 179 kts | 62° |
| 2026-04-20 16:26 | 8.94803 | 38.69184 | 9214 ft | 173 kts | 72° |
| 2026-04-20 16:26 | 8.95140 | 38.70298 | 9067 ft | 157 kts | 77° |
| 2026-04-20 16:26 | 8.95425 | 38.71297 | 8905 ft | 140 kts | 76° |
| 2026-04-20 16:26 | 8.95677 | 38.72235 | 8746 ft | 142 kts | 77° |
| 2026-04-20 16:27 | 8.95948 | 38.73230 | 8591 ft | 150 kts | 77° |
| 2026-04-20 16:27 | 8.96229 | 38.74225 | 8393 ft | 144 kts | 77° |
| 2026-04-20 16:27 | 8.96509 | 38.75184 | 8202 ft | 143 kts | 76° |
| 2026-04-20 16:27 | 8.96789 | 38.76157 | 8041 ft | 143 kts | 76° |
| 2026-04-20 16:28 | 8.97062 | 38.77116 | 7851 ft | 143 kts | 73° |
| 2026-04-20 16:28 | 8.97354 | 38.78083 | 7684 ft | 142 kts | 74° |
| 2026-04-20 16:28 | 8.97626 | 38.79019 | 7598 ft | 131 kts | 75° |
| 2026-04-20 16:28 | 8.97832 | 38.79723 | 7608 ft | 78 kts | 73° |
| 2026-04-20 16:29 | 8.97941 | 38.80103 | 7608 ft | 47 kts | 73° |
| 2026-04-20 16:29 | 8.98021 | 38.80369 | 7609 ft | 36 kts | 73° |
| 2026-04-20 16:29 | 8.98088 | 38.80601 | 7607 ft | 32 kts | 73° |
| 2026-04-20 16:29 | 8.98103 | 38.80748 | 7606 ft | 17 kts | 131° |
| 2026-04-20 16:30 | 8.98032 | 38.80725 | 7605 ft | 12 kts | 231° |
| 2026-04-20 16:30 | 8.97973 | 38.80664 | 7605 ft | 12 kts | 225° |
| 2026-04-20 16:30 | 8.97917 | 38.80601 | 7605 ft | 12 kts | 233° |
| 2026-04-20 16:30 | 8.97874 | 38.80528 | 7606 ft | 12 kts | 244° |
| 2026-04-20 16:31 | 8.97845 | 38.80447 | 7604 ft | 13 kts | 254° |
| 2026-04-20 16:31 | 8.97815 | 38.80347 | 7605 ft | 18 kts | 253° |
| 2026-04-20 16:31 | 8.97776 | 38.80210 | 7608 ft | 23 kts | 254° |
| 2026-04-20 16:31 | 8.97728 | 38.80046 | 7605 ft | 27 kts | 252° |
| 2026-04-20 16:32 | 8.97704 | 38.79903 | 7601 ft | 16 kts | 294° |
| 2026-04-20 16:32 | 8.97776 | 38.79860 | 7600 ft | 10 kts | 343° |
| 2026-04-20 16:32 | 8.97842 | 38.79841 | 7597 ft | 10 kts | 345° |
| 2026-04-20 16:32 | 8.97932 | 38.79817 | 7600 ft | 15 kts | 345° |
| 2026-04-20 16:33 | 8.97997 | 38.79798 | 7602 ft | 8 kts | 345° |
| 2026-04-20 16:33 | 8.98053 | 38.79783 | 7599 ft | 8 kts | 345° |
| 2026-04-20 16:33 | 8.98111 | 38.79768 | 7598 ft | 9 kts | 346° |
| 2026-04-20 16:33 | 8.98166 | 38.79748 | 7598 ft | 9 kts | 322° |
| 2026-04-20 16:34 | 8.98172 | 38.79693 | 7597 ft | 9 kts | 246° |
| 2026-04-20 16:34 | 8.98131 | 38.79644 | 7597 ft | 9 kts | 221° |
| 2026-04-20 16:34 | 8.98100 | 38.79588 | 7597 ft | 9 kts | 256° |
| 2026-04-20 16:34 | 8.98123 | 38.79560 | 7597 ft | 5 kts | 338° |
| 2026-04-20 16:35 | 8.98157 | 38.79549 | 7598 ft | 5 kts | 345° |
| 2026-04-20 16:35 | 8.98189 | 38.79540 | 7596 ft | 3 kts | 345° |
| 2026-04-20 16:35 | 8.98199 | 38.79537 | 7596 ft | 0 kts | 345° |